Time;durP1;ratioP1;P1;durP2;ratioP2;P2;SDS_P1;SDS_P2;PMS_P1;PMS_P2;Temp;Humidity;BMP_temperature;BMP_pressure;BME280_temperature;BME280_humidity;BME280_pressure;Samples;Min_cycle;Max_cycle;Signal;HPM_P1;HPM_P2
2020/12/07 17:39:48;;;;;;;75.72;38.80;;;3.30;99.90;;;;;;10042879;29;20077;-93
2020/12/07 17:44:50;;;;;;;61.20;32.22;;;3.30;99.90;;;;;;9995911;29;20072;-93
2020/12/07 17:49:53;;;;;;;66.72;37.30;;;3.40;99.90;;;;;;9996363;29;20066;-93
2020/12/07 17:54:55;;;;;;;65.35;35.53;;;3.30;99.90;;;;;;9982799;29;20106;-93
2020/12/07 18:00:11;;;;;;;60.22;32.60;;;3.40;99.90;;;;;;10010728;29;20399;-94
2020/12/07 18:05:16;;;;;;;70.75;34.60;;;3.40;99.90;;;;;;9996242;29;20097;-96
2020/12/07 18:10:23;;;;;;;63.75;34.25;;;3.30;99.90;;;;;;10012313;29;20054;-95
2020/12/07 18:15:27;;;;;;;68.45;35.63;;;3.40;99.90;;;;;;10007895;29;20057;-94
2020/12/07 18:20:32;;;;;;;70.85;37.30;;;3.40;99.90;;;;;;10009573;29;20467;-94
2020/12/07 18:25:44;;;;;;;67.05;34.20;;;3.40;99.90;;;;;;10009881;29;20057;-94
2020/12/07 18:31:06;;;;;;;66.35;33.13;;;3.40;99.90;;;;;;10012119;29;20066;-93
2020/12/07 18:36:12;;;;;;;66.18;35.88;;;3.40;99.90;;;;;;9993263;29;20054;-94
2020/12/07 18:41:24;;;;;;;70.32;35.70;;;3.40;99.90;;;;;;9994379;29;20138;-93
2020/12/07 18:46:36;;;;;;;63.17;34.72;;;3.40;99.90;;;;;;9994426;29;20057;-93
2020/12/07 18:51:40;;;;;;;64.43;34.90;;;3.40;99.90;;;;;;9994277;29;20062;-93
2020/12/07 18:56:44;;;;;;;66.68;34.53;;;3.40;99.90;;;;;;10008190;29;20562;-94
2020/12/07 19:02:03;;;;;;;68.60;36.70;;;3.40;99.90;;;;;;9990761;29;20490;-94
2020/12/07 19:07:19;;;;;;;61.78;33.17;;;3.30;99.90;;;;;;9994429;29;20164;-94
2020/12/07 19:12:24;;;;;;;62.88;33.17;;;3.30;99.90;;;;;;9993735;29;20552;-94
2020/12/07 19:17:37;;;;;;;65.40;32.60;;;3.30;99.90;;;;;;10003268;29;20054;-93
2020/12/07 19:22:39;;;;;;;59.15;32.80;;;3.30;99.90;;;;;;10009256;29;20421;-93
2020/12/07 19:27:50;;;;;;;52.77;30.17;;;3.30;99.90;;;;;;10010014;29;20138;-95
2020/12/07 19:32:52;;;;;;;61.53;30.75;;;3.30;99.90;;;;;;10007671;29;20062;-94
2020/12/07 19:37:54;;;;;;;;;;;3.20;99.90;;;;;;10007410;29;20068;-93
2020/12/07 19:42:55;;;;;;;57.90;31.80;;;3.20;99.90;;;;;;10007479;29;19999;-92
2020/12/07 19:47:57;;;;;;;54.72;29.33;;;3.20;99.90;;;;;;9992148;29;20588;-92
2020/12/07 19:52:58;;;;;;;;;;;3.10;99.90;;;;;;10007389;29;20050;-91
2020/12/07 19:58:00;;;;;;;53.42;27.90;;;3.10;99.90;;;;;;10005966;29;19931;-92
2020/12/07 20:03:03;;;;;;;51.88;28.23;;;3.10;99.90;;;;;;10007202;29;20081;-93
2020/12/07 20:08:06;;;;;;;53.03;28.55;;;3.00;99.90;;;;;;9991266;29;20096;-93
2020/12/07 20:13:07;;;;;;;53.38;28.60;;;2.90;99.90;;;;;;10005253;29;20066;-92
2020/12/07 20:18:09;;;;;;;45.58;26.48;;;2.90;99.90;;;;;;9991517;29;20141;-93
2020/12/07 20:23:10;;;;;;;46.83;26.17;;;2.80;99.90;;;;;;9991542;29;20144;-92
2020/12/07 20:28:12;;;;;;;41.78;23.70;;;2.70;99.90;;;;;;9996882;29;20058;-92
2020/12/07 20:33:13;;;;;;;;;;;2.50;99.90;;;;;;9999147;29;20145;-92
2020/12/07 20:38:15;;;;;;;48.28;24.08;;;2.40;99.90;;;;;;9998496;29;19968;-92
2020/12/07 20:43:17;;;;;;;;;;;2.30;99.90;;;;;;9982382;29;20066;-92
2020/12/07 20:48:18;;;;;;;50.15;28.83;;;2.20;99.90;;;;;;9997718;29;19924;-92
2020/12/07 20:53:20;;;;;;;104.75;54.13;;;2.20;99.90;;;;;;9983302;29;20422;-92
2020/12/07 20:58:21;;;;;;;87.75;44.35;;;2.10;99.90;;;;;;9983361;29;20062;-92
2020/12/07 21:03:23;;;;;;;85.40;41.17;;;2.10;99.90;;;;;;9997789;29;20502;-93
2020/12/07 21:08:24;;;;;;;48.97;28.60;;;1.90;99.90;;;;;;9997356;29;20065;-92
2020/12/07 21:13:26;;;;;;;53.90;30.73;;;1.90;99.90;;;;;;9985762;29;20084;-92
2020/12/07 21:18:28;;;;;;;30.48;19.33;;;1.60;99.90;;;;;;9967826;29;20058;-92
2020/12/07 21:23:29;;;;;;;34.50;19.98;;;1.60;99.90;;;;;;9997005;29;20698;-93
2020/12/07 21:28:31;;;;;;;30.63;19.02;;;1.60;99.90;;;;;;9982645;29;20141;-93
2020/12/07 21:33:32;;;;;;;25.40;17.30;;;1.50;99.90;;;;;;9997249;29;20102;-93
2020/12/07 21:38:34;;;;;;;32.75;18.05;;;1.40;99.90;;;;;;10023223;29;20077;-93
2020/12/07 21:43:35;;;;;;;27.05;17.25;;;1.40;99.90;;;;;;9996972;29;20475;-93
2020/12/07 21:48:38;;;;;;;86.20;44.13;;;1.30;99.90;;;;;;10033876;29;20057;-93
2020/12/07 21:53:39;;;;;;;35.53;21.13;;;1.20;99.90;;;;;;10011453;29;20058;-93
2020/12/07 21:58:41;;;;;;;33.95;19.85;;;1.30;99.90;;;;;;10011286;29;20058;-93
2020/12/07 22:03:47;;;;;;;;;;;1.10;99.90;;;;;;10010679;29;20395;-93
2020/12/07 22:08:48;;;;;;;24.75;16.73;;;1.10;99.90;;;;;;10010376;29;20284;-92
2020/12/07 22:13:51;;;;;;;28.23;18.10;;;1.00;99.90;;;;;;10010628;29;20106;-92
2020/12/07 22:18:52;;;;;;;26.63;16.77;;;0.90;99.90;;;;;;10010412;29;20092;-93
2020/12/07 22:24:09;;;;;;;26.48;16.13;;;0.90;99.90;;;;;;10010392;29;20065;-93
2020/12/07 22:29:11;;;;;;;29.92;17.75;;;0.90;99.90;;;;;;10008127;29;20089;-92
2020/12/07 22:34:12;;;;;;;30.50;18.42;;;1.00;99.90;;;;;;10008342;29;20145;-93
2020/12/07 22:39:18;;;;;;;27.80;17.15;;;1.10;99.90;;;;;;9993531;29;20068;-93
2020/12/07 22:44:20;;;;;;;33.90;18.85;;;1.10;99.90;;;;;;9994327;29;20148;-93
2020/12/07 22:49:21;;;;;;;30.23;18.20;;;1.10;99.90;;;;;;9979495;29;20090;-93
2020/12/07 22:54:23;;;;;;;40.38;22.15;;;1.10;99.90;;;;;;9994248;29;20482;-93
2020/12/07 22:59:24;;;;;;;31.45;19.38;;;1.10;99.90;;;;;;9993753;29;20145;-93
2020/12/07 23:04:26;;;;;;;27.77;16.70;;;1.20;99.90;;;;;;9993160;29;20486;-93
2020/12/07 23:09:27;;;;;;;34.88;18.55;;;1.30;99.90;;;;;;9994569;29;20072;-93
2020/12/07 23:14:31;;;;;;;28.95;16.80;;;1.40;99.90;;;;;;9993050;29;20058;-93
2020/12/07 23:19:32;;;;;;;31.63;18.27;;;1.30;99.90;;;;;;9993252;29;20089;-92
2020/12/07 23:24:34;;;;;;;23.27;14.98;;;1.30;99.90;;;;;;10008374;29;20120;-93
2020/12/07 23:29:37;;;;;;;21.05;14.15;;;1.10;99.90;;;;;;10007571;29;20068;-92
2020/12/07 23:34:39;;;;;;;20.70;14.02;;;1.00;99.90;;;;;;9993278;29;20555;-92
2020/12/07 23:39:40;;;;;;;21.95;14.02;;;0.90;99.90;;;;;;10007710;29;20141;-93
2020/12/07 23:44:42;;;;;;;25.65;15.40;;;0.80;99.90;;;;;;10008619;29;20144;-93
2020/12/07 23:49:43;;;;;;;24.98;16.10;;;0.80;99.90;;;;;;10006661;29;20399;-93
2020/12/07 23:54:45;;;;;;;26.05;15.35;;;0.80;99.90;;;;;;9992423;29;20092;-93
